Harwood, Missouri
Current Conditions -  °F | °C
As of 1:15 AM on Sunday 23 Nov 2014 (Local Time) from KGLY Reporting Station
Clear Clear  
Wind Chill: 54°   Ceiling: Unl
Heat Index: 54°   Visibility: 10mi
Dew Point: 52°   Wind: 12mph
Humidity: 94%   Direction: 160°SSE
Pressure: 29.7"   Gusts: NA
Location:  37.96°N, 94.15°W
Report Text: KGLY 230715Z AUTO 16010KT 10SM CLR 12/11 A2970 RMK AO2
Loading
Personal Weather Stations






























Interactive Weather Map New forecast layout! Learn more

10-Day Weather Forecast

Advertisements
Track Severe Weather on mobile